الصفحة الرئيسية
METAR-TAF:

METAR-TAF

مطار :

مطار الناظور العروي

الناظور, المغرب

دائرة عرض: 34-59-20N, خط طول: 003-01-42W, ارتفاع: 175 متر

مراقبة الطقس الحالي

تاريخ ووقت الإصدار 20 دقيقة قبل الساعة 12:00UTC
ريح 3 عقدة من الغرب
درجة الحرارة 21°درجة مئوية
الرطوبة 46%
ضغط 1026 hPa
الرؤية 10 كم أو أكثر
غيوم متفرقة على ارتفاع 4500 قدم

METAR: GMMW 261200Z 26003KT 9999 SCT045 21/09 Q1026 NOSIG

زمن: 13:20 (12:20 UTC)

توقعات

تاريخ ووقت الإصدار 1ساعة و 20 دقيقة قبل الساعة 11:00UTC
التوقعات صالحة من26 الساعة 12 UTC إلى 27 الساعة 18 UTC
ريح 5 عقدة من الشرق
الرؤية 10 كم أو أكثر
الغيوم لا تقل 1500 م ولا وجود لمزنة ركامية السحاب الأسود

TAF: GMMW 261100Z 2612/2718 09005KT CAVOK

أرصاد الطقس والتوقعات من أكثر من 4000 مطار (تقارير الطقس للمطار METAR والتنبؤ بالطقس بالمطارTAF).

المحطات المتاحة هي النقط الصفراء والحمراء على الخريطة.

حرك المؤشر فوق النقطة لمعرفة اسم المحطة.

ثم انقر لمعرفة أرصاد وتوقعات الطقس.

لتغيير الخارطة: اضغط على الأزرار الخضراء مع رمز الصليب الأسود للتكبير. على الزر الأخضر مع شرطة للتصغير، أو على الأسهم الخضراء للخرائط المجاورة.


METAR-TAF: